Time;durP1;ratioP1;P1;durP2;ratioP2;P2;SDS_P1;SDS_P2;PMS_P1;PMS_P2;Temp;Humidity;BMP_temperature;BMP_pressure;BME280_temperature;BME280_humidity;BME280_pressure;Samples;Min_cycle;Max_cycle;Signal;HPM_P1;HPM_P2
2023/01/31 08:26:54;;;;;;;34.60;8.47;;;4.70;99.90;;;;;;5051252;28;20623;-50
2023/01/31 08:29:19;;;;;;;30.10;8.20;;;4.70;99.90;;;;;;5060132;28;21072;-52
2023/01/31 08:31:45;;;;;;;23.53;8.00;;;4.80;99.90;;;;;;5058630;28;20328;-51
2023/01/31 08:34:10;;;;;;;27.30;7.80;;;4.80;99.90;;;;;;5060264;28;20197;-52
2023/01/31 08:36:36;;;;;;;34.80;8.70;;;4.90;99.90;;;;;;5061122;28;20200;-51
2023/01/31 08:39:03;;;;;;;31.10;7.10;;;4.90;99.90;;;;;;5059390;28;20186;-52
2023/01/31 08:41:31;;;;;;;30.67;7.60;;;5.00;88.80;;;;;;5059019;28;20268;-51
2023/01/31 08:43:56;;;;;;;26.23;7.50;;;5.00;74.30;;;;;;5058024;28;20920;-51
2023/01/31 08:46:24;;;;;;;25.27;7.73;;;5.00;62.20;;;;;;5058248;28;20464;-52
2023/01/31 08:48:50;;;;;;;20.17;6.30;;;5.10;50.70;;;;;;5060113;28;20189;-51
2023/01/31 08:51:15;;;;;;;26.17;6.80;;;5.10;18.50;;;;;;5058047;28;20462;-51
2023/01/31 08:53:43;;;;;;;28.17;7.80;;;5.20;1.00;;;;;;5059810;28;20183;-51
2023/01/31 08:56:09;;;;;;;21.30;7.03;;;5.20;1.00;;;;;;5059774;28;20182;-52
2023/01/31 08:58:37;;;;;;;34.23;7.63;;;5.20;1.00;;;;;;5055864;28;20873;-51
2023/01/31 09:01:08;;;;;;;24.73;6.90;;;5.20;1.00;;;;;;5059652;28;20569;-52
2023/01/31 09:03:34;;;;;;;28.97;8.40;;;5.20;1.00;;;;;;5057127;28;20460;-51
2023/01/31 09:06:01;;;;;;;18.13;6.27;;;5.20;1.00;;;;;;5059075;28;20467;-50
2023/01/31 09:08:27;;;;;;;28.97;6.67;;;5.30;1.00;;;;;;5057324;28;20624;-52
2023/01/31 09:10:54;;;;;;;27.10;6.83;;;5.30;1.00;;;;;;5059408;28;20527;-53
2023/01/31 09:13:19;;;;;;;27.97;6.50;;;5.30;1.00;;;;;;5059353;28;20197;-52
2023/01/31 09:15:45;;;;;;;25.83;6.90;;;5.30;1.00;;;;;;5058693;28;20440;-52
2023/01/31 09:18:11;;;;;;;27.90;7.70;;;5.30;1.00;;;;;;5057238;28;20194;-52
2023/01/31 09:20:36;;;;;;;30.30;8.10;;;5.30;1.00;;;;;;5057429;28;20471;-51
2023/01/31 09:23:02;;;;;;;29.27;7.50;;;5.30;14.90;;;;;;5060478;28;20882;-52
2023/01/31 09:25:27;;;;;;;30.50;7.47;;;5.30;17.50;;;;;;5053986;28;20287;-51
2023/01/31 09:27:53;;;;;;;32.17;7.13;;;5.30;1.00;;;;;;5056250;28;20189;-51
2023/01/31 09:30:19;;;;;;;29.27;7.67;;;5.40;1.00;;;;;;5059967;28;20905;-52
2023/01/31 09:32:45;;;;;;;29.48;8.15;;;5.40;1.00;;;;;;5055858;28;20568;-52
2023/01/31 09:35:12;;;;;;;26.77;6.67;;;5.40;1.00;;;;;;5058960;28;20193;-51
2023/01/31 09:37:38;;;;;;;20.07;7.10;;;5.40;1.00;;;;;;5043466;28;20191;-53
2023/01/31 09:40:05;;;;;;;23.60;6.43;;;5.40;1.00;;;;;;5047339;28;20444;-52
2023/01/31 09:42:35;;;;;;;23.80;7.40;;;5.40;1.00;;;;;;5043954;28;20445;-52
2023/01/31 09:45:14;;;;;;;25.03;7.03;;;5.40;1.00;;;;;;5044995;28;20529;-51
2023/01/31 09:47:45;;;;;;;16.43;7.00;;;5.30;25.10;;;;;;5041746;28;20463;-51
2023/01/31 09:50:39;;;;;;;25.90;8.15;;;5.30;55.10;;;;;;5037941;28;20748;-51
2023/01/31 09:53:05;;;;;;;18.60;8.13;;;5.30;92.90;;;;;;5038309;28;20527;-57
2023/01/31 09:56:06;;;;;;;21.13;8.77;;;5.20;99.90;;;;;;5061568;28;20436;-51
2023/01/31 09:58:54;;;;;;;26.20;8.37;;;5.20;99.90;;;;;;5064032;28;20669;-52
2023/01/31 10:01:27;;;;;;;20.17;7.57;;;5.20;99.90;;;;;;5053444;28;20441;-51
2023/01/31 10:04:06;;;;;;;21.00;8.10;;;5.20;99.90;;;;;;5037068;28;20437;-51
2023/01/31 10:06:56;;;;;;;20.50;8.50;;;5.20;99.90;;;;;;5049299;28;20542;-53
2023/01/31 10:09:41;;;;;;;24.03;8.47;;;5.10;99.90;;;;;;5040503;28;21051;-52
2023/01/31 10:12:14;;;;;;;17.60;8.13;;;5.10;99.90;;;;;;5043614;28;20821;-50
2023/01/31 10:14:57;;;;;;;22.90;8.47;;;5.20;99.90;;;;;;5055397;28;20490;-51
2023/01/31 10:17:57;;;;;;;19.57;8.73;;;5.20;99.90;;;;;;5032942;28;20402;-51
2023/01/31 10:20:38;;;;;;;26.37;8.77;;;5.20;99.90;;;;;;5032332;28;20417;-51
2023/01/31 10:23:32;;;;;;;26.40;9.87;;;5.20;99.90;;;;;;5038964;28;20441;-52
2023/01/31 10:26:05;;;;;;;23.00;9.93;;;5.20;99.90;;;;;;5046467;28;20517;-53
2023/01/31 10:28:37;;;;;;;28.47;10.23;;;5.20;99.90;;;;;;5051054;28;20461;-51
2023/01/31 10:31:12;;;;;;;27.60;9.20;;;5.30;99.90;;;;;;5041963;28;20480;-50
2023/01/31 10:33:51;;;;;;;20.83;10.52;;;5.40;99.90;;;;;;5030280;28;20487;-49
2023/01/31 10:36:24;;;;;;;21.23;9.77;;;5.40;99.90;;;;;;5032413;28;20254;-50
2023/01/31 10:39:01;;;;;;;20.70;10.85;;;5.40;99.90;;;;;;5036189;28;20512;-50
2023/01/31 10:41:59;;;;;;;24.50;10.60;;;5.40;99.90;;;;;;5031729;28;20174;-49
2023/01/31 10:44:41;;;;;;;30.03;9.77;;;5.50;99.90;;;;;;5035868;28;21023;-51
2023/01/31 10:47:15;;;;;;;28.17;10.33;;;5.40;99.90;;;;;;5031080;28;20856;-51
2023/01/31 10:49:47;;;;;;;34.93;11.87;;;5.50;99.90;;;;;;5045069;28;20424;-50
2023/01/31 10:52:32;;;;;;;23.87;9.47;;;5.50;99.90;;;;;;5046165;28;20523;-50
2023/01/31 10:55:03;;;;;;;23.43;10.00;;;5.50;99.90;;;;;;5046310;28;20464;-49
2023/01/31 10:57:28;;;;;;;22.60;10.93;;;5.50;99.90;;;;;;5051246;28;20432;-51
2023/01/31 10:59:55;;;;;;;26.27;9.53;;;5.60;99.90;;;;;;5046611;28;20426;-49
2023/01/31 11:02:26;;;;;;;27.03;8.90;;;5.60;99.90;;;;;;5050953;28;20934;-51
2023/01/31 11:04:57;;;;;;;20.10;8.13;;;5.60;99.90;;;;;;5040483;28;20584;-50
2023/01/31 11:07:27;;;;;;;28.43;10.77;;;5.60;99.90;;;;;;5034587;28;20429;-51
2023/01/31 11:09:53;;;;;;;16.63;9.10;;;5.60;99.90;;;;;;5044428;28;20947;-50
2023/01/31 11:12:20;;;;;;;20.60;9.20;;;5.60;99.90;;;;;;5041737;28;20470;-49
2023/01/31 11:15:13;;;;;;;25.20;9.20;;;5.60;99.90;;;;;;5044556;28;20562;-50
2023/01/31 11:17:42;;;;;;;19.43;9.30;;;5.60;99.90;;;;;;5042494;28;20424;-50
2023/01/31 11:20:20;;;;;;;19.73;9.07;;;5.70;99.90;;;;;;5027272;28;20453;-50
2023/01/31 11:22:46;;;;;;;27.57;9.67;;;5.70;99.90;;;;;;5029678;28;20445;-50
2023/01/31 11:25:21;;;;;;;25.00;9.13;;;5.80;99.90;;;;;;5034357;28;20496;-50
2023/01/31 11:27:48;;;;;;;20.63;9.80;;;5.80;99.90;;;;;;5031636;28;20272;-50
2023/01/31 11:30:30;;;;;;;27.83;8.60;;;5.80;99.90;;;;;;5030918;28;20432;-51
2023/01/31 11:32:56;;;;;;;27.17;8.87;;;5.80;99.90;;;;;;5031219;28;20433;-51
2023/01/31 11:35:30;;;;;;;18.90;8.87;;;5.80;99.90;;;;;;5031601;28;20449;-50
2023/01/31 11:38:02;;;;;;;24.47;8.30;;;5.90;99.90;;;;;;5030093;28;20490;-49
2023/01/31 11:40:36;;;;;;;17.37;7.50;;;6.00;99.90;;;;;;5032280;28;20437;-49
2023/01/31 11:43:04;;;;;;;13.97;7.53;;;6.00;99.90;;;;;;5036303;28;20448;-49
2023/01/31 11:45:38;;;;;;;18.00;6.90;;;6.00;99.90;;;;;;5041735;28;22682;-50
2023/01/31 11:48:16;;;;;;;14.97;7.40;;;6.10;99.90;;;;;;5035377;28;20536;-51
2023/01/31 11:50:54;;;;;;;21.73;7.80;;;6.10;99.90;;;;;;5039262;28;20491;-49
2023/01/31 11:53:46;;;;;;;16.80;6.97;;;6.10;99.90;;;;;;5037974;28;20423;-49
2023/01/31 11:56:20;;;;;;;13.23;7.10;;;6.10;99.90;;;;;;5038918;28;20387;-49
2023/01/31 11:58:51;;;;;;;17.53;6.70;;;6.10;99.90;;;;;;5039519;28;20449;-49
2023/01/31 12:01:22;;;;;;;14.33;5.73;;;6.20;99.90;;;;;;5037456;28;20484;-50
2023/01/31 12:04:05;;;;;;;13.10;5.70;;;6.10;99.90;;;;;;5040002;28;20440;-49
2023/01/31 12:06:37;;;;;;;10.77;5.73;;;6.20;99.90;;;;;;5035501;28;20479;-49
2023/01/31 12:09:17;;;;;;;14.40;4.60;;;6.20;99.90;;;;;;5039874;28;20494;-48
2023/01/31 12:11:51;;;;;;;14.10;5.20;;;6.20;99.90;;;;;;5043852;28;20444;-58
2023/01/31 12:14:18;;;;;;;13.70;5.50;;;6.20;99.90;;;;;;5043335;28;20448;-49
2023/01/31 12:16:46;;;;;;;8.10;4.70;;;6.20;99.90;;;;;;5038972;28;22722;-49
2023/01/31 12:19:27;;;;;;;12.83;4.47;;;6.20;99.90;;;;;;5043494;28;20452;-49
2023/01/31 12:22:28;;;;;;;9.27;4.10;;;6.20;99.90;;;;;;5040948;28;20450;-49
2023/01/31 12:25:04;;;;;;;13.57;4.70;;;6.30;99.90;;;;;;5045405;28;20847;-50
2023/01/31 12:27:47;;;;;;;8.77;3.70;;;6.30;99.90;;;;;;5044030;28;20503;-49
2023/01/31 12:30:23;;;;;;;11.03;4.37;;;6.40;99.90;;;;;;5041701;28;20445;-50
2023/01/31 12:32:54;;;;;;;6.73;3.30;;;6.40;99.90;;;;;;5039477;28;21019;-49
2023/01/31 12:35:29;;;;;;;10.50;3.37;;;6.40;99.90;;;;;;5039979;28;20570;-50
2023/01/31 12:38:03;;;;;;;4.10;2.70;;;6.40;99.90;;;;;;5042266;28;20447;-50
2023/01/31 12:40:58;;;;;;;8.53;2.97;;;6.40;99.90;;;;;;5041823;28;20493;-49
2023/01/31 12:44:04;;;;;;;5.60;2.80;;;6.50;99.90;;;;;;5036037;28;20455;-49
2023/01/31 12:46:32;;;;;;;3.70;1.93;;;6.40;99.90;;;;;;5004409;28;20570;-50
2023/01/31 12:49:23;;;;;;;5.67;2.40;;;6.50;99.90;;;;;;5045064;28;20433;-50
2023/01/31 12:52:23;;;;;;;2.53;2.10;;;6.50;99.90;;;;;;5040272;28;20463;-49
2023/01/31 12:55:12;;;;;;;2.37;1.80;;;6.50;99.90;;;;;;5042788;28;20476;-49
2023/01/31 12:58:09;;;;;;;8.87;2.07;;;6.50;99.90;;;;;;5044809;28;20445;-49
2023/01/31 13:00:48;;;;;;;4.70;2.13;;;6.50;99.90;;;;;;5043888;28;20925;-49
2023/01/31 13:03:25;;;;;;;2.23;1.80;;;6.60;99.90;;;;;;5038272;28;20455;-49
2023/01/31 13:05:54;;;;;;;4.00;2.03;;;6.70;99.90;;;;;;5040778;28;20467;-49
2023/01/31 13:08:27;;;;;;;4.70;2.00;;;6.70;99.90;;;;;;5040700;28;20448;-49
2023/01/31 13:11:08;;;;;;;4.77;2.10;;;6.70;99.90;;;;;;5039547;28;20452;-49
2023/01/31 13:13:48;;;;;;;5.47;2.00;;;6.70;99.90;;;;;;5042701;28;20924;-50
2023/01/31 13:16:36;;;;;;;3.53;1.90;;;6.80;99.90;;;;;;5044375;28;20439;-49
2023/01/31 13:19:28;;;;;;;3.10;1.90;;;6.90;99.90;;;;;;5044095;28;21010;-49
2023/01/31 13:21:58;;;;;;;3.77;2.43;;;6.90;99.90;;;;;;5038171;28;20453;-50
2023/01/31 13:24:31;;;;;;;4.93;2.03;;;6.80;99.90;;;;;;5045916;28;20490;-50
2023/01/31 13:27:27;;;;;;;4.90;2.30;;;6.80;99.90;;;;;;5041074;28;20472;-50
2023/01/31 13:30:04;;;;;;;4.70;2.50;;;6.90;99.90;;;;;;5041757;28;20446;-49
2023/01/31 13:32:33;;;;;;;9.70;3.17;;;6.80;99.90;;;;;;5044360;28;20436;-50
2023/01/31 13:35:05;;;;;;;13.30;3.13;;;7.00;99.90;;;;;;5043618;28;20444;-51
2023/01/31 13:37:34;;;;;;;9.00;2.97;;;7.10;99.90;;;;;;5046617;28;20498;-50
2023/01/31 13:40:16;;;;;;;6.70;3.33;;;7.20;99.90;;;;;;5042760;28;20432;-51
2023/01/31 13:42:42;;;;;;;13.00;3.30;;;7.20;99.90;;;;;;5043213;28;20934;-56
2023/01/31 13:45:12;;;;;;;8.40;3.00;;;7.20;99.90;;;;;;5042681;28;20472;-50
2023/01/31 13:47:50;;;;;;;8.60;3.00;;;7.20;99.90;;;;;;5044809;28;20999;-51
2023/01/31 13:50:40;;;;;;;8.67;3.57;;;7.30;99.90;;;;;;5040996;28;24035;-51
2023/01/31 13:53:32;;;;;;;15.20;3.80;;;7.30;99.90;;;;;;5043280;28;20937;-50
2023/01/31 13:56:00;;;;;;;8.60;3.30;;;7.40;99.90;;;;;;5043507;28;21195;-52
2023/01/31 13:58:31;;;;;;;8.27;3.27;;;7.40;99.90;;;;;;5045473;28;20433;-50
2023/01/31 14:01:12;;;;;;;9.77;2.97;;;7.40;99.90;;;;;;5043118;28;20498;-52
2023/01/31 14:04:13;;;;;;;17.70;3.47;;;7.40;99.90;;;;;;5043907;28;20441;-51
2023/01/31 14:07:06;;;;;;;11.13;3.40;;;7.30;99.90;;;;;;5044021;28;20546;-54
2023/01/31 14:09:35;;;;;;;16.23;3.50;;;7.30;99.90;;;;;;5042548;28;20445;-50
2023/01/31 14:12:16;;;;;;;12.77;3.50;;;7.30;99.90;;;;;;5043180;28;20964;-51
2023/01/31 14:15:27;;;;;;;7.17;3.20;;;7.20;99.90;;;;;;5041993;28;20456;-50
2023/01/31 14:17:53;;;;;;;8.90;3.30;;;7.20;99.90;;;;;;5030958;28;20455;-51
2023/01/31 14:20:30;;;;;;;18.50;3.70;;;7.30;99.90;;;;;;5039297;28;20445;-52
2023/01/31 14:23:29;;;;;;;7.43;3.23;;;7.20;99.90;;;;;;5043714;28;20213;-52
2023/01/31 14:25:56;;;;;;;11.07;3.10;;;7.20;99.90;;;;;;5046121;28;20493;-52
2023/01/31 14:28:22;;;;;;;14.17;3.63;;;7.20;99.90;;;;;;5050997;28;20468;-52
2023/01/31 14:30:48;;;;;;;14.93;3.73;;;7.20;99.90;;;;;;5052046;28;20421;-51
2023/01/31 14:33:18;;;;;;;5.97;3.30;;;7.20;99.90;;;;;;5049639;28;20517;-52
2023/01/31 14:36:11;;;;;;;15.27;4.30;;;7.20;99.90;;;;;;5048458;28;20890;-52
2023/01/31 14:38:49;;;;;;;16.70;4.17;;;7.20;99.90;;;;;;5053816;28;20468;-50
2023/01/31 14:41:32;;;;;;;17.00;3.97;;;7.20;99.90;;;;;;5050167;28;20424;-50
2023/01/31 14:44:10;;;;;;;13.43;3.90;;;7.20;99.90;;;;;;5048935;28;20210;-51
2023/01/31 14:47:02;;;;;;;9.00;3.80;;;7.10;99.90;;;;;;5045972;28;20464;-50
2023/01/31 14:50:00;;;;;;;23.60;4.20;;;7.20;99.90;;;;;;5048526;28;20440;-51
2023/01/31 14:52:39;;;;;;;14.97;4.27;;;7.10;99.90;;;;;;5046629;28;20425;-50
2023/01/31 14:55:11;;;;;;;15.47;4.77;;;7.10;99.90;;;;;;5050013;28;20443;-51
2023/01/31 14:57:42;;;;;;;27.27;4.83;;;7.10;99.90;;;;;;5050492;28;20420;-51
2023/01/31 15:00:22;;;;;;;13.57;3.80;;;7.10;99.90;;;;;;5041510;28;20952;-51
2023/01/31 15:02:52;;;;;;;13.70;3.80;;;7.20;99.90;;;;;;5050859;28;20408;-51
2023/01/31 15:05:30;;;;;;;20.00;4.50;;;7.20;99.90;;;;;;5049048;28;20460;-51
2023/01/31 15:08:12;;;;;;;24.13;4.40;;;7.20;99.90;;;;;;5032145;28;20394;-52
2023/01/31 15:11:01;;;;;;;26.47;6.23;;;7.20;99.90;;;;;;5031860;28;20472;-51
2023/01/31 15:13:43;;;;;;;14.90;4.20;;;7.20;99.90;;;;;;5035740;28;20445;-52
2023/01/31 15:16:20;;;;;;;18.27;3.73;;;7.20;99.90;;;;;;5049091;28;20475;-52
2023/01/31 15:19:08;;;;;;;18.27;4.27;;;7.20;99.90;;;;;;5039769;28;20492;-51
2023/01/31 15:21:39;;;;;;;28.43;4.33;;;7.20;99.90;;;;;;5043803;28;20443;-52
2023/01/31 15:24:11;;;;;;;16.10;3.90;;;7.20;99.90;;;;;;5033571;28;20523;-52
2023/01/31 15:26:39;;;;;;;27.42;4.85;;;7.20;53.50;;;;;;5049470;28;20440;-53
2023/01/31 15:29:06;;;;;;;17.27;4.33;;;7.10;29.50;;;;;;5033631;28;20209;-52
2023/01/31 15:31:43;;;;;;;19.93;4.40;;;7.10;20.60;;;;;;5050171;28;20421;-52
2023/01/31 15:34:19;;;;;;;27.70;4.50;;;7.10;17.50;;;;;;5040726;28;20795;-51
2023/01/31 15:36:51;;;;;;;18.37;4.10;;;7.10;19.70;;;;;;5030873;28;20412;-52
2023/01/31 15:39:31;;;;;;;22.10;4.63;;;7.10;13.40;;;;;;5043728;28;21396;-52
2023/01/31 15:41:56;;;;;;;23.57;5.67;;;7.10;1.00;;;;;;5048150;28;20420;-51
2023/01/31 15:44:26;;;;;;;28.23;4.40;;;7.20;1.00;;;;;;5040033;28;20448;-53
2023/01/31 15:46:53;;;;;;;19.97;4.27;;;7.20;1.00;;;;;;5030312;28;20222;-52
2023/01/31 15:49:30;;;;;;;21.37;4.63;;;7.20;1.00;;;;;;5042770;28;20999;-53
2023/01/31 15:52:16;;;;;;;29.57;4.70;;;7.20;1.00;;;;;;5030670;28;20414;-56
2023/01/31 15:54:56;;;;;;;21.77;3.93;;;7.20;1.00;;;;;;5031988;28;20422;-51
2023/01/31 15:57:55;;;;;;;20.97;4.33;;;7.30;1.00;;;;;;5048901;28;20436;-52
2023/01/31 16:00:27;;;;;;;34.10;5.00;;;7.30;99.90;;;;;;5049230;28;20439;-52
2023/01/31 16:02:59;;;;;;;26.60;3.97;;;7.20;99.90;;;;;;5047678;28;20429;-52
2023/01/31 16:05:28;;;;;;;27.43;4.27;;;7.20;99.90;;;;;;5038615;28;20978;-52
2023/01/31 16:07:54;;;;;;;23.17;4.60;;;7.20;99.90;;;;;;5045848;28;20448;-51
2023/01/31 16:10:20;;;;;;;23.13;4.10;;;7.30;99.90;;;;;;5049299;28;20413;-52
2023/01/31 16:12:49;;;;;;;27.47;4.63;;;7.30;99.90;;;;;;5049527;28;20193;-52
2023/01/31 16:15:22;;;;;;;7.00;2.00;;;7.30;99.90;;;;;;5039437;28;20194;-61
2023/01/31 16:17:49;;;;;;;7.53;2.17;;;6.90;1.00;;;;;;5030423;28;20444;-59
2023/01/31 16:20:42;;;;;;;15.43;2.50;;;6.00;1.00;;;;;;5049420;28;20609;-57
2023/01/31 16:23:31;;;;;;;16.57;2.43;;;5.60;99.90;;;;;;5042897;28;21130;-55
2023/01/31 16:25:56;;;;;;;19.00;2.50;;;5.20;1.00;;;;;;5041962;28;20498;-55
2023/01/31 16:28:23;;;;;;;13.33;2.23;;;5.10;1.00;;;;;;5040959;28;20521;-54
2023/01/31 16:30:49;;;;;;;9.60;1.80;;;4.90;1.00;;;;;;5040027;28;20201;-53
2023/01/31 16:33:17;;;;;;;14.23;1.87;;;4.90;1.00;;;;;;5042009;28;20437;-54
2023/01/31 16:35:43;;;;;;;10.20;1.80;;;4.90;1.00;;;;;;5047489;28;20457;-53
2023/01/31 16:38:22;;;;;;;14.10;2.60;;;4.80;1.00;;;;;;5042563;28;20471;-53
2023/01/31 16:40:51;;;;;;;13.13;2.10;;;4.80;1.00;;;;;;5040882;28;20667;-53
2023/01/31 16:43:35;;;;;;;12.20;2.23;;;4.80;1.00;;;;;;5040579;28;20444;-53
2023/01/31 16:46:02;;;;;;;13.30;2.60;;;4.80;1.00;;;;;;5039575;28;20456;-53
2023/01/31 16:48:31;;;;;;;16.03;2.57;;;4.80;1.00;;;;;;5047338;28;20438;-53
2023/01/31 16:50:59;;;;;;;28.50;2.97;;;4.80;1.00;;;;;;5041704;28;20442;-53
2023/01/31 16:53:24;;;;;;;20.50;2.60;;;4.80;1.00;;;;;;5048967;28;20434;-53
2023/01/31 16:56:11;;;;;;;15.20;2.87;;;4.80;1.00;;;;;;5046848;28;20452;-53
2023/01/31 16:58:52;;;;;;;27.80;3.60;;;4.80;1.00;;;;;;5046440;28;20193;-53
2023/01/31 17:01:30;;;;;;;27.50;4.20;;;4.90;1.00;;;;;;5039274;28;20861;-53
2023/01/31 17:04:08;;;;;;;32.03;4.30;;;5.00;1.00;;;;;;5039100;28;20532;-51
2023/01/31 17:06:34;;;;;;;30.97;4.60;;;5.20;1.00;;;;;;5039732;28;20472;-51
2023/01/31 17:09:01;;;;;;;17.33;3.90;;;5.30;1.00;;;;;;5044471;28;20942;-51
2023/01/31 17:11:27;;;;;;;24.33;4.30;;;5.30;99.90;;;;;;5041739;28;20476;-51
2023/01/31 17:13:52;;;;;;;32.87;4.10;;;5.40;99.90;;;;;;5039028;28;20477;-52
2023/01/31 17:16:26;;;;;;;21.93;4.00;;;5.50;99.90;;;;;;5035321;28;20195;-52
2023/01/31 17:18:53;;;;;;;26.73;3.70;;;5.50;99.90;;;;;;5041805;28;20616;-49
2023/01/31 17:21:21;;;;;;;32.33;4.37;;;5.50;99.90;;;;;;5052636;28;20421;-52
2023/01/31 17:23:47;;;;;;;25.87;3.40;;;5.70;1.00;;;;;;5051340;28;20539;-52
2023/01/31 17:26:15;;;;;;;29.47;4.70;;;5.80;1.00;;;;;;5045594;28;20541;-52
2023/01/31 17:28:41;;;;;;;29.33;5.30;;;5.80;99.90;;;;;;5046975;28;20753;-53
2023/01/31 17:31:16;;;;;;;28.97;4.30;;;5.80;99.90;;;;;;5042211;28;20448;-53
2023/01/31 17:33:42;;;;;;;27.70;3.80;;;5.80;1.00;;;;;;5042516;28;20190;-49
2023/01/31 17:36:09;;;;;;;32.40;4.87;;;5.80;1.00;;;;;;5046673;28;20442;-50
2023/01/31 17:38:34;;;;;;;34.83;5.50;;;5.80;65.20;;;;;;5045873;28;20580;-51
2023/01/31 17:41:00;;;;;;;29.83;4.60;;;5.90;99.90;;;;;;5046315;28;20525;-51
2023/01/31 17:43:26;;;;;;;31.17;3.73;;;5.90;1.00;;;;;;5044469;28;20717;-49
2023/01/31 17:45:51;;;;;;;29.37;4.20;;;5.90;1.00;;;;;;5044460;28;20213;-50
2023/01/31 17:48:17;;;;;;;35.60;5.03;;;5.90;99.90;;;;;;5043536;28;20213;-51
2023/01/31 17:50:45;;;;;;;26.30;4.07;;;6.00;99.90;;;;;;5045517;28;20668;-51
2023/01/31 17:53:14;;;;;;;26.70;4.40;;;6.00;1.00;;;;;;5044103;28;20453;-50
2023/01/31 17:55:41;;;;;;;38.07;5.07;;;5.90;1.00;;;;;;5042770;28;20776;-51
2023/01/31 17:58:10;;;;;;;28.83;4.60;;;5.90;99.90;;;;;;5045866;28;20465;-51
2023/01/31 18:00:36;;;;;;;33.33;5.50;;;5.90;99.90;;;;;;5045514;28;20492;-50
2023/01/31 18:03:01;;;;;;;38.20;5.87;;;5.90;99.90;;;;;;5046429;28;20949;-50
2023/01/31 18:05:27;;;;;;;29.60;5.10;;;5.80;1.00;;;;;;5046745;28;20300;-55
2023/01/31 18:07:53;;;;;;;35.70;5.10;;;5.80;99.90;;;;;;5040888;28;20187;-50
2023/01/31 18:10:18;;;;;;;28.23;5.43;;;5.80;1.00;;;;;;5046385;28;20190;-50
2023/01/31 18:12:44;;;;;;;41.03;6.30;;;5.70;1.00;;;;;;5042889;28;20277;-49
2023/01/31 18:15:10;;;;;;;22.80;5.37;;;5.70;1.00;;;;;;5045113;28;20199;-50
2023/01/31 18:17:35;;;;;;;32.17;5.40;;;5.70;99.90;;;;;;5044952;28;20198;-57
2023/01/31 18:20:01;;;;;;;33.97;5.53;;;5.70;99.90;;;;;;5042774;28;20437;-50
2023/01/31 18:22:27;;;;;;;30.90;5.13;;;5.70;1.00;;;;;;5044355;28;20616;-50
2023/01/31 18:24:52;;;;;;;38.60;5.03;;;5.80;99.90;;;;;;5042324;28;20241;-50
2023/01/31 18:27:18;;;;;;;40.87;6.73;;;5.80;16.90;;;;;;5044940;28;20269;-50
2023/01/31 18:29:44;;;;;;;44.70;6.40;;;5.80;99.90;;;;;;5043279;28;20256;-51
2023/01/31 18:32:09;;;;;;;30.20;5.67;;;5.80;1.00;;;;;;5044478;28;20746;-51
2023/01/31 18:34:36;;;;;;;37.17;5.90;;;5.80;99.90;;;;;;5042902;28;20190;-51
2023/01/31 18:37:11;;;;;;;32.07;5.60;;;5.70;1.00;;;;;;5043254;28;20673;-51
2023/01/31 18:39:37;;;;;;;43.07;6.57;;;5.80;1.00;;;;;;5041552;28;20439;-51
2023/01/31 18:42:03;;;;;;;33.67;5.90;;;5.80;1.00;;;;;;5047171;28;20816;-51
2023/01/31 18:44:29;;;;;;;35.73;5.70;;;5.80;1.00;;;;;;5043890;28;20194;-52
2023/01/31 18:46:54;;;;;;;38.43;5.50;;;5.80;1.00;;;;;;5039586;28;20206;-51
2023/01/31 18:49:20;;;;;;;40.17;5.63;;;5.70;1.00;;;;;;5043852;28;20537;-52
2023/01/31 18:51:46;;;;;;;39.47;6.23;;;5.80;1.00;;;;;;5043491;28;20186;-50
2023/01/31 18:54:11;;;;;;;38.77;6.03;;;5.80;1.00;;;;;;5038262;28;20190;-51
2023/01/31 18:56:37;;;;;;;31.77;6.03;;;5.80;1.00;;;;;;5039199;28;20961;-52
2023/01/31 18:59:03;;;;;;;40.00;6.13;;;5.80;1.00;;;;;;5039130;28;20194;-52
2023/01/31 19:01:28;;;;;;;37.57;5.70;;;5.90;2.30;;;;;;5045107;28;20644;-52
2023/01/31 19:03:57;;;;;;;43.53;6.13;;;6.00;1.00;;;;;;5050825;28;20225;-51
2023/01/31 19:06:28;;;;;;;47.73;5.13;;;6.00;99.90;;;;;;5045701;28;20198;-51
2023/01/31 19:08:56;;;;;;;32.50;5.70;;;6.00;1.00;;;;;;5050807;28;20428;-52
2023/01/31 19:11:24;;;;;;;40.70;5.30;;;6.00;1.00;;;;;;5044324;28;20539;-51
2023/01/31 19:13:51;;;;;;;29.20;4.63;;;5.90;99.90;;;;;;5032472;28;20422;-50
2023/01/31 19:16:19;;;;;;;29.30;4.90;;;5.80;99.90;;;;;;5037183;28;21133;-51
2023/01/31 19:18:45;;;;;;;25.80;4.30;;;5.70;1.00;;;;;;5051109;28;20401;-52
2023/01/31 19:21:25;;;;;;;25.67;4.37;;;5.70;99.90;;;;;;5043819;28;20450;-52
2023/01/31 19:23:54;;;;;;;25.57;4.37;;;5.60;99.90;;;;;;5047975;28;20444;-51
2023/01/31 19:26:20;;;;;;;31.20;5.40;;;5.60;99.90;;;;;;5037492;28;20855;-51
2023/01/31 19:28:47;;;;;;;31.57;5.80;;;5.50;36.60;;;;;;5030396;28;20426;-50
2023/01/31 19:31:15;;;;;;;43.60;5.33;;;5.50;99.90;;;;;;5031068;28;20461;-51
2023/01/31 19:33:41;;;;;;;27.83;5.87;;;5.50;99.90;;;;;;5048084;28;20794;-51
2023/01/31 19:36:12;;;;;;;29.63;5.30;;;5.50;1.00;;;;;;5051367;28;20409;-50
2023/01/31 19:38:38;;;;;;;43.13;5.40;;;5.50;99.90;;;;;;5050601;28;20570;-51
2023/01/31 19:41:09;;;;;;;27.60;5.30;;;5.50;99.90;;;;;;5049827;28;20472;-51
2023/01/31 19:43:35;;;;;;;25.33;5.00;;;5.50;1.00;;;;;;5049023;28;20441;-51
2023/01/31 19:46:02;;;;;;;31.80;5.37;;;5.60;99.90;;;;;;5050672;28;20457;-51
2023/01/31 19:48:27;;;;;;;38.20;5.30;;;5.60;1.00;;;;;;5038351;28;20504;-51
2023/01/31 19:50:54;;;;;;;27.20;7.77;;;5.60;99.90;;;;;;5050832;28;20519;-51
2023/01/31 19:53:19;;;;;;;42.57;6.03;;;5.60;1.00;;;;;;5047376;28;20190;-50
2023/01/31 19:55:49;;;;;;;34.80;4.57;;;5.60;53.60;;;;;;5050132;28;20478;-50
2023/01/31 19:58:15;;;;;;;30.13;5.40;;;5.60;1.00;;;;;;5048184;28;20186;-50
2023/01/31 20:00:40;;;;;;;34.30;5.00;;;5.60;99.90;;;;;;5050206;28;20490;-50
2023/01/31 20:03:06;;;;;;;39.60;7.07;;;5.60;99.90;;;;;;5036926;28;20622;-51
2023/01/31 20:05:32;;;;;;;33.03;5.27;;;5.70;82.50;;;;;;5028778;28;20211;-50
2023/01/31 20:07:57;;;;;;;48.63;6.50;;;5.60;99.90;;;;;;5036041;28;20183;-50
2023/01/31 20:10:23;;;;;;;39.47;4.77;;;5.70;1.00;;;;;;5037784;28;20429;-51
2023/01/31 20:12:49;;;;;;;31.17;6.20;;;5.70;1.00;;;;;;5048144;28;20273;-51
2023/01/31 20:15:15;;;;;;;23.27;6.00;;;5.70;1.00;;;;;;5041938;28;20192;-51
2023/01/31 20:17:41;;;;;;;25.53;5.37;;;5.60;1.00;;;;;;5047956;28;20209;-51
2023/01/31 20:20:07;;;;;;;39.93;6.50;;;5.60;99.90;;;;;;5047881;28;20420;-50
2023/01/31 20:22:35;;;;;;;34.47;5.27;;;5.70;99.90;;;;;;5040457;28;20193;-51
2023/01/31 20:25:03;;;;;;;36.70;6.17;;;5.60;1.00;;;;;;5049981;28;20480;-50
2023/01/31 20:27:32;;;;;;;31.73;5.73;;;5.60;99.90;;;;;;5048698;28;20979;-55
2023/01/31 20:29:58;;;;;;;36.27;6.00;;;5.60;1.00;;;;;;5046788;28;20527;-48
2023/01/31 20:32:24;;;;;;;28.70;4.80;;;5.70;99.90;;;;;;5047939;28;20434;-50
2023/01/31 20:34:49;;;;;;;44.53;7.80;;;5.70;99.90;;;;;;5049371;28;20404;-50
2023/01/31 20:37:15;;;;;;;35.97;7.10;;;5.70;99.90;;;;;;5049330;28;20218;-50
2023/01/31 20:39:40;;;;;;;40.67;8.07;;;5.70;1.00;;;;;;5045729;28;20636;-50
2023/01/31 20:42:06;;;;;;;31.03;5.60;;;5.70;24.80;;;;;;5041416;28;20194;-50
2023/01/31 20:44:32;;;;;;;40.20;6.43;;;5.70;99.90;;;;;;5040763;28;20261;-50
2023/01/31 20:46:58;;;;;;;47.23;6.73;;;5.70;1.00;;;;;;5039087;28;20945;-50
2023/01/31 20:49:24;;;;;;;37.20;6.13;;;5.70;79.90;;;;;;5042198;28;20182;-51
2023/01/31 20:51:49;;;;;;;34.07;5.30;;;5.70;99.90;;;;;;5038145;28;20183;-50
2023/01/31 20:54:15;;;;;;;40.13;5.33;;;5.70;99.90;;;;;;5042697;28;20436;-49
2023/01/31 20:56:41;;;;;;;25.07;4.37;;;5.70;99.90;;;;;;5040699;28;20183;-52
2023/01/31 20:59:06;;;;;;;27.77;4.63;;;5.60;99.90;;;;;;5039922;28;20280;-50
2023/01/31 21:01:32;;;;;;;28.17;4.50;;;5.50;1.00;;;;;;5042108;28;20197;-50
2023/01/31 21:03:57;;;;;;;32.60;4.33;;;5.40;99.90;;;;;;5038195;28;20198;-51
2023/01/31 21:06:23;;;;;;;23.43;5.27;;;5.30;1.00;;;;;;5038021;28;20210;-50
2023/01/31 21:08:48;;;;;;;39.67;5.50;;;5.30;1.00;;;;;;5039226;28;20190;-49
2023/01/31 21:11:14;;;;;;;27.13;5.37;;;5.30;1.00;;;;;;5041622;28;20198;-50
2023/01/31 21:13:42;;;;;;;40.73;5.30;;;5.30;1.00;;;;;;5034329;28;20187;-50
2023/01/31 21:16:09;;;;;;;37.83;5.50;;;5.20;1.00;;;;;;5034279;28;20191;-50
2023/01/31 21:18:37;;;;;;;35.57;5.23;;;5.20;1.00;;;;;;5038259;28;20516;-50
2023/01/31 21:21:08;;;;;;;36.53;5.60;;;5.20;1.00;;;;;;5031314;28;20430;-49
2023/01/31 21:23:36;;;;;;;40.63;5.53;;;5.20;1.00;;;;;;5034213;28;20441;-50
2023/01/31 21:26:03;;;;;;;47.13;6.13;;;5.30;99.90;;;;;;5031294;28;20496;-50
2023/01/31 21:28:29;;;;;;;34.43;5.63;;;5.30;99.90;;;;;;5028148;28;20430;-50
2023/01/31 21:31:03;;;;;;;44.30;6.30;;;5.30;1.00;;;;;;5042532;28;20436;-54
2023/01/31 21:33:29;;;;;;;33.00;5.70;;;5.40;99.90;;;;;;5050290;28;20183;-50
2023/01/31 21:35:57;;;;;;;24.07;5.33;;;5.40;99.90;;;;;;5045633;28;20443;-50
2023/01/31 21:38:23;;;;;;;26.43;5.10;;;5.40;1.00;;;;;;5052514;28;20447;-50
2023/01/31 21:42:13;;;;;;;27.30;6.40;;;5.40;99.90;;;;;;5052747;28;20439;-51
2023/01/31 21:43:39;;;;;;;35.33;6.10;;;5.50;32.50;;;;;;5052661;28;20777;-50